Terminal Aerodrome Forecast
Issued by NWS Sioux Falls, SD

Home | Current Version | Previous Version | Text Only | Print | Product List | Glossary On
Versions: 1 2 3 4 5 6 7 8 9 10 11 12 13 14 15
539
FTUS43 KFSD 170326 AAB
TAFFSD
TAF AMD
KFSD 170326Z 1703/1724 31011KT P6SM -SHRA BKN009 OVC012
     FM170600 30012KT 6SM BR OVC008
     FM171300 31012KT P6SM SCT015
     FM172200 32011KT P6SM SKC=

USA.gov is the U.S. government's official web portal to all federal, state and local government web resources and services.